sensor_id;sensor_type;location;lat;lon;timestamp;pressure;altitude;pressure_sealevel;temperature;humidity
10618;BME280;5356;43.526;26.534;2023-07-24T00:02:14;99231.63;;;24.13;100.00
10618;BME280;5356;43.526;26.534;2023-07-24T00:04:40;99220.38;;;24.06;100.00
10618;BME280;5356;43.526;26.534;2023-07-24T00:07:05;99224.75;;;23.93;100.00
10618;BME280;5356;43.526;26.534;2023-07-24T00:09:31;99224.22;;;23.91;100.00
10618;BME280;5356;43.526;26.534;2023-07-24T00:11:57;99225.88;;;23.92;100.00
10618;BME280;5356;43.526;26.534;2023-07-24T00:14:22;99223.06;;;23.84;100.00
10618;BME280;5356;43.526;26.534;2023-07-24T00:16:48;99226.59;;;23.84;100.00
10618;BME280;5356;43.526;26.534;2023-07-24T00:19:13;99224.59;;;23.76;100.00
10618;BME280;5356;43.526;26.534;2023-07-24T00:21:39;99224.78;;;23.66;100.00
10618;BME280;5356;43.526;26.534;2023-07-24T00:24:05;99224.19;;;23.55;100.00
10618;BME280;5356;43.526;26.534;2023-07-24T00:26:30;99222.50;;;23.45;100.00
10618;BME280;5356;43.526;26.534;2023-07-24T00:28:56;99217.06;;;23.31;100.00
10618;BME280;5356;43.526;26.534;2023-07-24T00:31:21;99222.13;;;23.24;100.00
10618;BME280;5356;43.526;26.534;2023-07-24T00:33:46;99226.16;;;23.27;100.00
10618;BME280;5356;43.526;26.534;2023-07-24T00:36:12;99230.38;;;23.33;100.00
10618;BME280;5356;43.526;26.534;2023-07-24T00:38:37;99229.84;;;23.31;100.00
10618;BME280;5356;43.526;26.534;2023-07-24T00:41:03;99232.38;;;23.27;100.00
10618;BME280;5356;43.526;26.534;2023-07-24T00:43:28;99235.72;;;23.24;100.00
10618;BME280;5356;43.526;26.534;2023-07-24T00:45:54;99233.69;;;23.16;100.00
10618;BME280;5356;43.526;26.534;2023-07-24T00:48:21;99244.16;;;23.09;100.00
10618;BME280;5356;43.526;26.534;2023-07-24T00:50:47;99243.44;;;23.03;100.00
10618;BME280;5356;43.526;26.534;2023-07-24T00:53:13;99246.06;;;23.08;100.00
10618;BME280;5356;43.526;26.534;2023-07-24T00:55:41;99248.78;;;23.08;100.00
10618;BME280;5356;43.526;26.534;2023-07-24T00:58:10;99240.81;;;23.12;100.00
10618;BME280;5356;43.526;26.534;2023-07-24T01:00:38;99236.09;;;23.18;100.00
10618;BME280;5356;43.526;26.534;2023-07-24T01:03:04;99241.53;;;23.18;100.00
10618;BME280;5356;43.526;26.534;2023-07-24T01:05:29;99240.53;;;23.14;100.00
10618;BME280;5356;43.526;26.534;2023-07-24T01:07:55;99248.88;;;23.17;100.00
10618;BME280;5356;43.526;26.534;2023-07-24T01:10:21;99249.69;;;23.18;100.00
10618;BME280;5356;43.526;26.534;2023-07-24T01:15:32;99241.44;;;23.09;100.00
10618;BME280;5356;43.526;26.534;2023-07-24T01:18:00;99240.31;;;22.96;100.00
10618;BME280;5356;43.526;26.534;2023-07-24T01:20:30;99234.47;;;23.03;100.00
10618;BME280;5356;43.526;26.534;2023-07-24T01:23:15;99237.91;;;23.08;100.00
10618;BME280;5356;43.526;26.534;2023-07-24T01:26:06;99231.78;;;23.17;100.00
10618;BME280;5356;43.526;26.534;2023-07-24T01:28:33;99238.72;;;23.23;100.00
10618;BME280;5356;43.526;26.534;2023-07-24T01:30:58;99226.72;;;23.24;100.00
10618;BME280;5356;43.526;26.534;2023-07-24T01:33:24;99229.34;;;23.15;100.00
10618;BME280;5356;43.526;26.534;2023-07-24T01:35:58;99223.72;;;23.12;100.00
10618;BME280;5356;43.526;26.534;2023-07-24T01:38:25;99233.06;;;23.05;100.00
10618;BME280;5356;43.526;26.534;2023-07-24T01:40:54;99225.69;;;22.92;100.00
10618;BME280;5356;43.526;26.534;2023-07-24T01:43:21;99229.41;;;22.82;100.00
10618;BME280;5356;43.526;26.534;2023-07-24T01:45:46;99224.06;;;22.77;100.00
10618;BME280;5356;43.526;26.534;2023-07-24T01:48:11;99230.69;;;22.71;100.00
10618;BME280;5356;43.526;26.534;2023-07-24T01:50:37;99226.75;;;22.63;100.00
10618;BME280;5356;43.526;26.534;2023-07-24T01:53:02;99228.56;;;22.68;100.00
10618;BME280;5356;43.526;26.534;2023-07-24T01:55:28;99227.41;;;22.55;100.00
10618;BME280;5356;43.526;26.534;2023-07-24T01:57:53;99233.16;;;22.54;100.00
10618;BME280;5356;43.526;26.534;2023-07-24T02:00:19;99237.69;;;22.58;100.00
10618;BME280;5356;43.526;26.534;2023-07-24T02:02:45;99226.41;;;22.51;100.00
10618;BME280;5356;43.526;26.534;2023-07-24T02:05:10;99238.69;;;22.49;100.00
10618;BME280;5356;43.526;26.534;2023-07-24T02:07:35;99242.72;;;22.51;100.00
10618;BME280;5356;43.526;26.534;2023-07-24T02:10:01;99239.31;;;22.59;100.00
10618;BME280;5356;43.526;26.534;2023-07-24T02:12:27;99234.81;;;22.69;100.00
10618;BME280;5356;43.526;26.534;2023-07-24T02:14:52;99247.66;;;22.63;100.00
10618;BME280;5356;43.526;26.534;2023-07-24T02:17:18;99239.53;;;22.63;100.00
10618;BME280;5356;43.526;26.534;2023-07-24T02:19:44;99238.63;;;22.68;100.00
10618;BME280;5356;43.526;26.534;2023-07-24T02:22:10;99237.41;;;22.60;100.00
10618;BME280;5356;43.526;26.534;2023-07-24T02:24:36;99234.25;;;22.53;100.00
10618;BME280;5356;43.526;26.534;2023-07-24T02:27:01;99237.34;;;22.46;100.00
10618;BME280;5356;43.526;26.534;2023-07-24T02:29:27;99237.97;;;22.43;100.00
10618;BME280;5356;43.526;26.534;2023-07-24T02:31:57;99243.19;;;22.39;100.00
10618;BME280;5356;43.526;26.534;2023-07-24T02:34:22;99241.34;;;22.35;100.00
10618;BME280;5356;43.526;26.534;2023-07-24T02:36:52;99245.25;;;22.29;100.00
10618;BME280;5356;43.526;26.534;2023-07-24T02:39:18;99252.06;;;22.26;100.00
10618;BME280;5356;43.526;26.534;2023-07-24T02:41:43;99240.47;;;22.21;100.00
10618;BME280;5356;43.526;26.534;2023-07-24T02:44:09;99246.13;;;22.24;100.00
10618;BME280;5356;43.526;26.534;2023-07-24T02:46:34;99243.34;;;22.29;100.00
10618;BME280;5356;43.526;26.534;2023-07-24T02:49:00;99244.66;;;22.32;100.00
10618;BME280;5356;43.526;26.534;2023-07-24T02:51:25;99242.47;;;22.34;100.00
10618;BME280;5356;43.526;26.534;2023-07-24T02:53:53;99238.91;;;22.33;100.00
10618;BME280;5356;43.526;26.534;2023-07-24T02:56:19;99232.69;;;22.33;100.00
10618;BME280;5356;43.526;26.534;2023-07-24T02:58:45;99226.75;;;22.31;100.00
10618;BME280;5356;43.526;26.534;2023-07-24T03:01:11;99227.03;;;22.29;100.00
10618;BME280;5356;43.526;26.534;2023-07-24T03:03:39;99227.91;;;22.44;100.00
10618;BME280;5356;43.526;26.534;2023-07-24T03:06:05;99229.72;;;22.48;100.00
10618;BME280;5356;43.526;26.534;2023-07-24T03:08:30;99227.63;;;22.45;100.00
10618;BME280;5356;43.526;26.534;2023-07-24T03:10:56;99227.09;;;22.43;100.00
10618;BME280;5356;43.526;26.534;2023-07-24T03:13:22;99227.97;;;22.38;100.00
10618;BME280;5356;43.526;26.534;2023-07-24T03:15:57;99227.16;;;22.38;100.00
10618;BME280;5356;43.526;26.534;2023-07-24T03:18:23;99228.88;;;22.34;100.00
10618;BME280;5356;43.526;26.534;2023-07-24T03:20:49;99234.81;;;22.36;100.00
10618;BME280;5356;43.526;26.534;2023-07-24T03:23:14;99235.44;;;22.47;100.00
10618;BME280;5356;43.526;26.534;2023-07-24T03:25:40;99236.25;;;22.47;100.00
10618;BME280;5356;43.526;26.534;2023-07-24T03:28:05;99244.69;;;22.46;100.00
10618;BME280;5356;43.526;26.534;2023-07-24T03:30:31;99239.63;;;22.39;100.00
10618;BME280;5356;43.526;26.534;2023-07-24T03:32:57;99236.38;;;22.23;100.00
10618;BME280;5356;43.526;26.534;2023-07-24T03:35:23;99239.50;;;22.11;100.00
10618;BME280;5356;43.526;26.534;2023-07-24T03:37:49;99236.88;;;22.06;100.00
10618;BME280;5356;43.526;26.534;2023-07-24T03:40:15;99242.22;;;22.11;100.00
10618;BME280;5356;43.526;26.534;2023-07-24T03:42:41;99239.50;;;22.11;100.00
10618;BME280;5356;43.526;26.534;2023-07-24T03:45:07;99236.28;;;22.09;100.00
10618;BME280;5356;43.526;26.534;2023-07-24T03:47:32;99239.06;;;22.04;100.00
10618;BME280;5356;43.526;26.534;2023-07-24T03:49:58;99238.47;;;22.07;100.00
10618;BME280;5356;43.526;26.534;2023-07-24T03:52:23;99228.34;;;22.13;100.00
10618;BME280;5356;43.526;26.534;2023-07-24T03:54:48;99233.94;;;22.22;100.00
10618;BME280;5356;43.526;26.534;2023-07-24T03:57:14;99233.16;;;22.21;100.00
10618;BME280;5356;43.526;26.534;2023-07-24T03:59:39;99237.69;;;22.26;100.00
10618;BME280;5356;43.526;26.534;2023-07-24T04:02:05;99233.19;;;22.35;100.00
10618;BME280;5356;43.526;26.534;2023-07-24T04:04:31;99223.88;;;22.41;100.00
10618;BME280;5356;43.526;26.534;2023-07-24T04:06:56;99230.63;;;22.44;100.00
10618;BME280;5356;43.526;26.534;2023-07-24T04:09:22;99234.00;;;22.35;100.00
10618;BME280;5356;43.526;26.534;2023-07-24T04:11:48;99229.97;;;22.33;100.00
10618;BME280;5356;43.526;26.534;2023-07-24T04:14:13;99239.34;;;22.40;100.00
10618;BME280;5356;43.526;26.534;2023-07-24T04:16:39;99232.59;;;22.38;100.00
10618;BME280;5356;43.526;26.534;2023-07-24T04:19:04;99235.41;;;22.33;100.00
10618;BME280;5356;43.526;26.534;2023-07-24T04:21:30;99234.97;;;22.26;100.00
10618;BME280;5356;43.526;26.534;2023-07-24T04:23:56;99234.81;;;22.17;100.00
10618;BME280;5356;43.526;26.534;2023-07-24T04:26:21;99236.28;;;22.09;100.00
10618;BME280;5356;43.526;26.534;2023-07-24T04:28:46;99244.00;;;22.21;100.00
10618;BME280;5356;43.526;26.534;2023-07-24T04:31:12;99233.34;;;22.25;100.00
10618;BME280;5356;43.526;26.534;2023-07-24T04:33:38;99244.22;;;22.25;100.00
10618;BME280;5356;43.526;26.534;2023-07-24T04:36:04;99243.34;;;22.29;100.00
10618;BME280;5356;43.526;26.534;2023-07-24T04:38:30;99247.66;;;22.30;100.00
10618;BME280;5356;43.526;26.534;2023-07-24T04:40:55;99241.56;;;22.38;100.00
10618;BME280;5356;43.526;26.534;2023-07-24T04:43:20;99240.94;;;22.41;100.00
10618;BME280;5356;43.526;26.534;2023-07-24T04:45:46;99243.38;;;22.43;100.00
10618;BME280;5356;43.526;26.534;2023-07-24T04:48:11;99243.31;;;22.48;100.00
10618;BME280;5356;43.526;26.534;2023-07-24T04:50:37;99246.50;;;22.50;100.00
10618;BME280;5356;43.526;26.534;2023-07-24T04:53:02;99250.97;;;22.60;100.00
10618;BME280;5356;43.526;26.534;2023-07-24T04:55:28;99241.91;;;22.64;100.00
10618;BME280;5356;43.526;26.534;2023-07-24T04:57:53;99236.72;;;22.68;100.00
10618;BME280;5356;43.526;26.534;2023-07-24T05:00:19;99237.44;;;22.74;100.00
10618;BME280;5356;43.526;26.534;2023-07-24T05:02:44;99234.13;;;22.77;100.00
10618;BME280;5356;43.526;26.534;2023-07-24T05:05:09;99227.69;;;22.86;100.00
10618;BME280;5356;43.526;26.534;2023-07-24T05:07:35;99231.63;;;22.94;100.00
10618;BME280;5356;43.526;26.534;2023-07-24T05:10:00;99227.22;;;22.98;100.00
10618;BME280;5356;43.526;26.534;2023-07-24T05:12:26;99217.47;;;22.97;100.00
10618;BME280;5356;43.526;26.534;2023-07-24T05:14:51;99233.38;;;23.04;100.00
10618;BME280;5356;43.526;26.534;2023-07-24T05:17:17;99233.47;;;23.13;100.00
10618;BME280;5356;43.526;26.534;2023-07-24T05:19:42;99234.88;;;23.24;100.00
10618;BME280;5356;43.526;26.534;2023-07-24T05:22:08;99226.94;;;23.41;100.00
10618;BME280;5356;43.526;26.534;2023-07-24T05:24:38;99224.31;;;23.50;100.00
10618;BME280;5356;43.526;26.534;2023-07-24T05:27:04;99225.09;;;23.64;100.00
10618;BME280;5356;43.526;26.534;2023-07-24T05:29:30;99224.88;;;23.74;100.00
10618;BME280;5356;43.526;26.534;2023-07-24T05:31:56;99224.59;;;23.76;100.00
10618;BME280;5356;43.526;26.534;2023-07-24T05:34:21;99231.53;;;23.82;100.00
10618;BME280;5356;43.526;26.534;2023-07-24T05:36:47;99226.03;;;23.96;100.00
10618;BME280;5356;43.526;26.534;2023-07-24T05:39:12;99224.38;;;24.09;100.00
10618;BME280;5356;43.526;26.534;2023-07-24T05:41:38;99222.53;;;24.18;100.00
10618;BME280;5356;43.526;26.534;2023-07-24T05:44:03;99218.47;;;24.29;100.00
10618;BME280;5356;43.526;26.534;2023-07-24T05:46:29;99228.63;;;24.37;100.00
10618;BME280;5356;43.526;26.534;2023-07-24T05:48:54;99224.56;;;24.49;100.00
10618;BME280;5356;43.526;26.534;2023-07-24T05:51:21;99224.59;;;24.57;100.00
10618;BME280;5356;43.526;26.534;2023-07-24T05:53:47;99228.28;;;24.61;100.00
10618;BME280;5356;43.526;26.534;2023-07-24T05:56:12;99233.66;;;24.75;100.00
10618;BME280;5356;43.526;26.534;2023-07-24T05:58:38;99225.03;;;24.82;100.00
10618;BME280;5356;43.526;26.534;2023-07-24T06:01:03;99220.91;;;24.93;100.00
10618;BME280;5356;43.526;26.534;2023-07-24T06:03:29;99224.19;;;25.04;100.00
10618;BME280;5356;43.526;26.534;2023-07-24T06:05:55;99221.53;;;25.21;100.00
10618;BME280;5356;43.526;26.534;2023-07-24T06:08:21;99218.50;;;25.23;100.00
10618;BME280;5356;43.526;26.534;2023-07-24T06:10:48;99225.72;;;25.27;100.00
10618;BME280;5356;43.526;26.534;2023-07-24T06:13:17;99212.78;;;25.42;100.00
10618;BME280;5356;43.526;26.534;2023-07-24T06:15:43;99213.78;;;25.54;100.00
10618;BME280;5356;43.526;26.534;2023-07-24T06:18:09;99206.53;;;25.59;100.00
10618;BME280;5356;43.526;26.534;2023-07-24T06:20:35;99206.88;;;25.74;100.00
10618;BME280;5356;43.526;26.534;2023-07-24T06:23:00;99199.34;;;25.80;100.00
10618;BME280;5356;43.526;26.534;2023-07-24T06:25:26;99199.22;;;25.94;100.00
10618;BME280;5356;43.526;26.534;2023-07-24T06:27:51;99201.63;;;26.04;100.00
10618;BME280;5356;43.526;26.534;2023-07-24T06:30:17;99200.66;;;26.17;100.00
10618;BME280;5356;43.526;26.534;2023-07-24T06:32:42;99196.47;;;26.29;100.00
10618;BME280;5356;43.526;26.534;2023-07-24T06:35:08;99191.97;;;26.33;100.00
10618;BME280;5356;43.526;26.534;2023-07-24T06:37:34;99194.22;;;26.31;100.00
10618;BME280;5356;43.526;26.534;2023-07-24T06:39:59;99207.50;;;26.41;100.00
10618;BME280;5356;43.526;26.534;2023-07-24T06:42:25;99202.38;;;26.57;100.00
10618;BME280;5356;43.526;26.534;2023-07-24T06:44:50;99203.16;;;26.66;100.00
10618;BME280;5356;43.526;26.534;2023-07-24T06:47:16;99197.00;;;26.78;100.00
10618;BME280;5356;43.526;26.534;2023-07-24T06:49:41;99200.03;;;26.85;100.00
10618;BME280;5356;43.526;26.534;2023-07-24T06:52:07;99201.81;;;26.90;100.00
10618;BME280;5356;43.526;26.534;2023-07-24T06:54:32;99197.22;;;27.02;100.00
10618;BME280;5356;43.526;26.534;2023-07-24T06:56:57;99197.31;;;27.15;100.00
10618;BME280;5356;43.526;26.534;2023-07-24T06:59:23;99185.84;;;27.30;100.00
10618;BME280;5356;43.526;26.534;2023-07-24T07:01:48;99182.41;;;27.42;100.00
10618;BME280;5356;43.526;26.534;2023-07-24T07:04:14;99187.28;;;27.57;100.00
10618;BME280;5356;43.526;26.534;2023-07-24T07:06:39;99187.25;;;27.66;100.00
10618;BME280;5356;43.526;26.534;2023-07-24T07:09:05;99179.28;;;27.73;100.00
10618;BME280;5356;43.526;26.534;2023-07-24T07:11:31;99174.34;;;27.87;99.89
10618;BME280;5356;43.526;26.534;2023-07-24T07:13:57;99171.63;;;27.87;99.03
10618;BME280;5356;43.526;26.534;2023-07-24T07:16:22;99163.91;;;28.02;98.75
10618;BME280;5356;43.526;26.534;2023-07-24T07:18:48;99161.09;;;28.10;98.65
10618;BME280;5356;43.526;26.534;2023-07-24T07:21:13;99160.13;;;28.27;97.94
10618;BME280;5356;43.526;26.534;2023-07-24T07:23:38;99166.91;;;28.42;97.82
10618;BME280;5356;43.526;26.534;2023-07-24T07:26:04;99154.06;;;28.55;95.58
10618;BME280;5356;43.526;26.534;2023-07-24T07:28:29;99160.13;;;28.60;94.02
10618;BME280;5356;43.526;26.534;2023-07-24T07:30:55;99151.53;;;28.62;92.95
10618;BME280;5356;43.526;26.534;2023-07-24T07:33:20;99148.47;;;28.63;91.79
10618;BME280;5356;43.526;26.534;2023-07-24T07:35:50;99147.56;;;28.84;92.01
10618;BME280;5356;43.526;26.534;2023-07-24T07:38:15;99140.03;;;28.93;90.72
10618;BME280;5356;43.526;26.534;2023-07-24T07:40:41;99144.28;;;29.03;88.23
10618;BME280;5356;43.526;26.534;2023-07-24T07:43:06;99139.59;;;29.03;85.47
10618;BME280;5356;43.526;26.534;2023-07-24T07:45:31;99144.06;;;29.08;85.49
10618;BME280;5356;43.526;26.534;2023-07-24T07:47:57;99142.88;;;29.21;84.86
10618;BME280;5356;43.526;26.534;2023-07-24T07:50:22;99138.88;;;29.31;84.72
10618;BME280;5356;43.526;26.534;2023-07-24T07:52:52;99141.00;;;29.50;82.10
10618;BME280;5356;43.526;26.534;2023-07-24T07:55:18;99135.03;;;29.72;81.74
10618;BME280;5356;43.526;26.534;2023-07-24T07:57:44;99137.25;;;29.83;80.33
10618;BME280;5356;43.526;26.534;2023-07-24T08:00:10;99131.03;;;29.98;79.81
10618;BME280;5356;43.526;26.534;2023-07-24T08:02:35;99136.00;;;30.08;77.71
10618;BME280;5356;43.526;26.534;2023-07-24T08:05:08;99137.72;;;30.13;73.26
10618;BME280;5356;43.526;26.534;2023-07-24T08:07:34;99141.50;;;30.08;72.47
10618;BME280;5356;43.526;26.534;2023-07-24T08:09:59;99133.88;;;30.17;71.72
10618;BME280;5356;43.526;26.534;2023-07-24T08:12:25;99135.81;;;30.29;70.95
10618;BME280;5356;43.526;26.534;2023-07-24T08:14:50;99137.69;;;30.41;70.67
10618;BME280;5356;43.526;26.534;2023-07-24T08:17:16;99136.88;;;30.56;71.33
10618;BME280;5356;43.526;26.534;2023-07-24T08:19:41;99132.56;;;30.55;70.23
10618;BME280;5356;43.526;26.534;2023-07-24T08:22:07;99142.03;;;30.58;70.60
10618;BME280;5356;43.526;26.534;2023-07-24T08:24:35;99134.50;;;30.55;68.72
10618;BME280;5356;43.526;26.534;2023-07-24T08:27:01;99137.78;;;30.60;69.25
10618;BME280;5356;43.526;26.534;2023-07-24T08:29:27;99134.56;;;30.74;67.88
10618;BME280;5356;43.526;26.534;2023-07-24T08:31:52;99130.75;;;30.79;65.46
10618;BME280;5356;43.526;26.534;2023-07-24T08:34:18;99133.28;;;30.84;65.90
10618;BME280;5356;43.526;26.534;2023-07-24T08:36:43;99128.28;;;30.90;64.72
10618;BME280;5356;43.526;26.534;2023-07-24T08:39:09;99144.00;;;30.89;64.32
10618;BME280;5356;43.526;26.534;2023-07-24T08:41:34;99134.78;;;30.97;64.10
10618;BME280;5356;43.526;26.534;2023-07-24T08:44:01;99125.16;;;30.91;63.15
10618;BME280;5356;43.526;26.534;2023-07-24T08:46:27;99122.84;;;31.09;63.20
10618;BME280;5356;43.526;26.534;2023-07-24T08:48:54;99124.97;;;31.16;61.47
10618;BME280;5356;43.526;26.534;2023-07-24T08:51:20;99131.88;;;31.25;60.75
10618;BME280;5356;43.526;26.534;2023-07-24T08:53:48;99125.34;;;31.33;59.60
10618;BME280;5356;43.526;26.534;2023-07-24T08:56:14;99120.88;;;31.25;56.62
10618;BME280;5356;43.526;26.534;2023-07-24T08:58:40;99124.53;;;31.33;57.08
10618;BME280;5356;43.526;26.534;2023-07-24T09:01:06;99123.28;;;31.46;57.80
10618;BME280;5356;43.526;26.534;2023-07-24T09:03:32;99116.56;;;31.63;56.67
10618;BME280;5356;43.526;26.534;2023-07-24T09:05:58;99120.41;;;31.78;56.39
10618;BME280;5356;43.526;26.534;2023-07-24T09:08:39;99115.03;;;31.85;55.23
10618;BME280;5356;43.526;26.534;2023-07-24T09:11:06;99110.25;;;32.02;54.02
10618;BME280;5356;43.526;26.534;2023-07-24T09:13:35;99110.88;;;32.14;53.36
10618;BME280;5356;43.526;26.534;2023-07-24T09:16:01;99103.22;;;32.27;52.99
10618;BME280;5356;43.526;26.534;2023-07-24T09:18:26;99094.78;;;32.39;52.02
10618;BME280;5356;43.526;26.534;2023-07-24T09:20:52;99096.81;;;32.42;52.34
10618;BME280;5356;43.526;26.534;2023-07-24T09:23:26;99104.31;;;32.00;50.94
10618;BME280;5356;43.526;26.534;2023-07-24T09:25:53;99095.13;;;32.15;51.02
10618;BME280;5356;43.526;26.534;2023-07-24T09:28:18;99093.00;;;32.28;50.72
10618;BME280;5356;43.526;26.534;2023-07-24T09:30:53;99091.47;;;32.30;48.85
10618;BME280;5356;43.526;26.534;2023-07-24T09:33:18;99090.00;;;32.36;48.44
10618;BME280;5356;43.526;26.534;2023-07-24T09:35:44;99084.50;;;32.36;46.82
10618;BME280;5356;43.526;26.534;2023-07-24T09:38:10;99090.00;;;32.36;46.51
10618;BME280;5356;43.526;26.534;2023-07-24T09:40:44;99084.75;;;32.51;46.61
10618;BME280;5356;43.526;26.534;2023-07-24T09:43:24;99089.16;;;32.55;45.97
10618;BME280;5356;43.526;26.534;2023-07-24T09:45:51;99084.06;;;32.57;45.01
10618;BME280;5356;43.526;26.534;2023-07-24T09:48:18;99079.91;;;32.67;44.45
10618;BME280;5356;43.526;26.534;2023-07-24T09:50:46;99076.38;;;32.70;43.98
10618;BME280;5356;43.526;26.534;2023-07-24T09:53:31;99077.97;;;32.71;43.63
10618;BME280;5356;43.526;26.534;2023-07-24T09:56:05;99071.13;;;32.88;44.02
10618;BME280;5356;43.526;26.534;2023-07-24T09:58:35;99071.16;;;32.92;42.85
10618;BME280;5356;43.526;26.534;2023-07-24T10:01:09;99063.69;;;33.19;43.41
10618;BME280;5356;43.526;26.534;2023-07-24T10:03:38;99065.88;;;33.36;43.05
10618;BME280;5356;43.526;26.534;2023-07-24T10:06:04;99057.25;;;33.38;42.23
10618;BME280;5356;43.526;26.534;2023-07-24T10:08:30;99052.41;;;33.31;41.51
10618;BME280;5356;43.526;26.534;2023-07-24T10:10:58;99061.47;;;33.31;41.62
10618;BME280;5356;43.526;26.534;2023-07-24T10:13:25;99060.69;;;33.31;40.94
10618;BME280;5356;43.526;26.534;2023-07-24T10:15:51;99059.31;;;33.48;41.13
10618;BME280;5356;43.526;26.534;2023-07-24T10:18:17;99051.16;;;33.55;39.48
10618;BME280;5356;43.526;26.534;2023-07-24T10:20:44;99053.94;;;33.59;38.08
10618;BME280;5356;43.526;26.534;2023-07-24T10:23:10;99046.25;;;33.75;38.66
10618;BME280;5356;43.526;26.534;2023-07-24T10:25:38;99035.78;;;33.95;39.06
10618;BME280;5356;43.526;26.534;2023-07-24T10:28:09;99039.91;;;34.12;38.60
10618;BME280;5356;43.526;26.534;2023-07-24T10:30:39;99039.13;;;34.15;38.10
10618;BME280;5356;43.526;26.534;2023-07-24T10:33:05;99036.31;;;34.08;37.87
10618;BME280;5356;43.526;26.534;2023-07-24T10:35:44;99042.34;;;34.20;38.37
10618;BME280;5356;43.526;26.534;2023-07-24T10:38:15;99035.31;;;34.34;38.29
10618;BME280;5356;43.526;26.534;2023-07-24T10:40:42;99033.84;;;34.47;38.39
10618;BME280;5356;43.526;26.534;2023-07-24T10:43:12;99025.94;;;34.46;37.73
10618;BME280;5356;43.526;26.534;2023-07-24T10:48:07;99017.88;;;34.78;38.18
10618;BME280;5356;43.526;26.534;2023-07-24T10:50:38;99021.78;;;34.70;37.71
10618;BME280;5356;43.526;26.534;2023-07-24T10:53:03;99019.34;;;34.61;36.82
10618;BME280;5356;43.526;26.534;2023-07-24T10:55:29;99011.84;;;34.61;36.93
10618;BME280;5356;43.526;26.534;2023-07-24T10:57:54;99013.25;;;34.41;35.59
10618;BME280;5356;43.526;26.534;2023-07-24T11:00:19;99005.81;;;34.49;35.67
10618;BME280;5356;43.526;26.534;2023-07-24T11:02:45;98994.94;;;34.74;35.92
10618;BME280;5356;43.526;26.534;2023-07-24T11:05:12;98995.44;;;34.97;36.14
10618;BME280;5356;43.526;26.534;2023-07-24T11:07:37;99002.19;;;35.03;35.23
10618;BME280;5356;43.526;26.534;2023-07-24T11:10:03;99004.44;;;34.80;35.02
10618;BME280;5356;43.526;26.534;2023-07-24T11:12:29;98998.44;;;34.67;34.92
10618;BME280;5356;43.526;26.534;2023-07-24T11:14:56;99000.47;;;34.77;35.36
10618;BME280;5356;43.526;26.534;2023-07-24T11:17:36;98997.38;;;34.93;35.41
10618;BME280;5356;43.526;26.534;2023-07-24T11:20:11;98993.88;;;34.96;35.00
10618;BME280;5356;43.526;26.534;2023-07-24T11:22:41;98996.56;;;34.85;35.55
10618;BME280;5356;43.526;26.534;2023-07-24T11:25:07;98984.03;;;35.09;35.57
10618;BME280;5356;43.526;26.534;2023-07-24T11:27:37;98988.72;;;34.98;34.28
10618;BME280;5356;43.526;26.534;2023-07-24T11:30:03;98982.09;;;35.17;34.35
10618;BME280;5356;43.526;26.534;2023-07-24T11:32:28;98981.75;;;35.40;34.61
10618;BME280;5356;43.526;26.534;2023-07-24T11:34:54;98985.72;;;35.50;34.63
10618;BME280;5356;43.526;26.534;2023-07-24T11:37:19;98977.41;;;35.43;34.38
10618;BME280;5356;43.526;26.534;2023-07-24T11:39:59;98964.75;;;35.45;34.70
10618;BME280;5356;43.526;26.534;2023-07-24T11:42:30;98964.34;;;35.36;34.33
10618;BME280;5356;43.526;26.534;2023-07-24T11:44:55;98961.19;;;35.45;35.13
10618;BME280;5356;43.526;26.534;2023-07-24T11:47:21;98957.31;;;35.71;34.88
10618;BME280;5356;43.526;26.534;2023-07-24T11:49:57;98952.94;;;35.77;34.59
10618;BME280;5356;43.526;26.534;2023-07-24T11:52:23;98957.69;;;35.66;34.04
10618;BME280;5356;43.526;26.534;2023-07-24T11:54:56;98954.13;;;35.69;34.25
10618;BME280;5356;43.526;26.534;2023-07-24T11:57:26;98952.94;;;35.77;33.93
10618;BME280;5356;43.526;26.534;2023-07-24T11:59:53;98944.25;;;35.93;33.81
10618;BME280;5356;43.526;26.534;2023-07-24T12:02:19;98945.84;;;35.90;33.64
10618;BME280;5356;43.526;26.534;2023-07-24T12:04:45;98934.34;;;35.95;33.67
10618;BME280;5356;43.526;26.534;2023-07-24T12:07:10;98945.44;;;35.99;33.61
10618;BME280;5356;43.526;26.534;2023-07-24T12:09:36;98941.09;;;36.12;33.24
10618;BME280;5356;43.526;26.534;2023-07-24T12:12:03;98937.47;;;36.37;33.38
10618;BME280;5356;43.526;26.534;2023-07-24T12:14:29;98948.56;;;36.48;32.89
10618;BME280;5356;43.526;26.534;2023-07-24T12:17:01;98947.38;;;36.52;32.61
10618;BME280;5356;43.526;26.534;2023-07-24T12:19:27;98939.81;;;36.60;33.03
10618;BME280;5356;43.526;26.534;2023-07-24T12:21:53;98937.84;;;36.57;32.41
10618;BME280;5356;43.526;26.534;2023-07-24T12:24:18;98939.84;;;36.46;32.55
10618;BME280;5356;43.526;26.534;2023-07-24T12:26:44;98930.69;;;36.67;32.47
10618;BME280;5356;43.526;26.534;2023-07-24T12:29:09;98930.59;;;36.92;32.47
10618;BME280;5356;43.526;26.534;2023-07-24T12:31:34;98923.44;;;36.98;32.17
10618;BME280;5356;43.526;26.534;2023-07-24T12:34:00;98925.03;;;36.88;31.94
10618;BME280;5356;43.526;26.534;2023-07-24T12:36:26;98922.25;;;36.95;31.95
10618;BME280;5356;43.526;26.534;2023-07-24T12:38:52;98913.34;;;37.25;31.77
10618;BME280;5356;43.526;26.534;2023-07-24T12:41:17;98917.22;;;37.42;31.64
10618;BME280;5356;43.526;26.534;2023-07-24T12:43:43;98916.44;;;37.49;31.88
10618;BME280;5356;43.526;26.534;2023-07-24T12:46:09;98904.59;;;37.30;31.49
10618;BME280;5356;43.526;26.534;2023-07-24T12:48:34;98900.53;;;37.46;32.01
10618;BME280;5356;43.526;26.534;2023-07-24T12:51:01;98900.47;;;37.60;31.60
10618;BME280;5356;43.526;26.534;2023-07-24T12:53:27;98906.84;;;37.57;31.43
10618;BME280;5356;43.526;26.534;2023-07-24T12:55:52;98889.47;;;37.39;30.80
10618;BME280;5356;43.526;26.534;2023-07-24T12:58:18;98890.84;;;37.09;31.46